Myanmar (MM) Flag Myanmar (MM) BGP network information

109 ASN Networks

ASN Description IPv4 Prefixes IPv6 Prefixes IPv4 Peers IPv6 Peers Date Allocated
AS9988 Myanma Posts and Telecommunications 37 1 1 1 2000-04-26
AS132148 HORIZON TELECOM INTERNATIONAL COMPANY LIMITED 5 1 2 1 2016-08-03
AS133384 5BB Broadband 8 0 1 0 2014-02-19
AS134714 Elite Telecom Public Company Limited 3 0 1 0 2015-10-08
AS135111 Asia Mega Link 3 0 2 0 2018-03-07
AS135529 FPT MYANMAR COMPANY LIMITED 8 0 1 0 2016-06-03
AS135589 Internet Maekhong Network Company Limited 5 0 2 0 2018-09-04
AS136177 Yoma Bank Limited 3 0 2 0 2017-01-11
AS136255 Telecom International Myanmar Co., Ltd 49 5 39 8 2017-02-08
AS137826 AST SYSTEM TECHNOLOGY COMPANY LIMITED 2 0 2 0 2018-05-11
AS137888 Bee Connect Myanmar Co., Ltd. 1 0 1 0 2018-06-01
AS138168 MyanmarAPN 4 0 3 0 2018-08-29
AS131322 Yatanarpon Teleport Company Limited 12 1 5 1 2011-06-14
AS132167 OOREDOO MYANMAR 33 0 37 0 2013-09-17
AS134105 Shwe Than Lwin Media Co.,Ltd. 1 0 1 0 2015-03-16
AS134840 Myanmar Country Co., Ltd. 8 0 2 0 2015-11-27
AS135405 WELINK 6 0 3 0 2016-05-06
AS136480 Myanmar Unilink Communication Company Limited 29 0 5 0 2017-04-04
AS136919 FACE24 Co.,Ltd 2 0 1 0 2017-08-17
AS137431 ZORRO RITZ PUBLIC COMPANY LIMITED 1 1 1 1 2018-01-24
AS138401 MM-VERUMLIB CO., LTD. 1 0 1 0 2018-11-02
AS139206 Pan Asia Majestic Eagle Ltd 1 0 1 0 2019-06-04
AS139822 GNE Company Limited 1 0 2 0 2019-11-26
AS140552 Co-operative Bank Public Company Limited 3 0 2 0 2020-04-09
AS141704 Galaxia @ Net 1 0 1 0 2021-02-01
AS63852 Myanmar Net 5 0 1 0 2014-11-12
AS63998 Kinetic Myanmar Technology 5 0 4 0 2015-06-22
AS132100 Myanmar Speed Net Co.,Ltd 9 0 2 0 2016-08-01
AS133385 Telenor Myanmar 47 2 33 2 2014-02-24
AS133524 Global Technology Co., Ltd. 21 1 18 0 2014-06-06
AS135149 Myanmar Technology Gateway Co., Ltd 1 0 1 0 2016-03-07
AS135300 Myanmar Broadband Telecom Co., Ltd 11 1 7 1 2016-04-02
AS135307 Golden TMH Telecom Co. Ltd 9 0 8 0 2016-04-05
AS135433 KBZ Gateway Company Ltd 8 0 3 0 2016-05-18
AS136210 IT Spectrum Company Limited 5 0 2 0 2017-01-18
AS136465 Dept. of Information Technology & Cyber Security 1 0 1 0 2017-03-28
AS136783 Spectrum Life Company Limited 3 0 2 0 2017-06-28
AS136786 Information Beam Company Limited 3 2 2 2 2017-06-28
AS136975 Global Technology 4 0 4 2 2017-09-13
AS137891 Be The First 3 0 2 0 2018-06-05
AS138634 MYNET SOLUTIONS COMPANY LIMITED 2 0 2 0 2019-02-21
AS138684 ManauLinks Co.,Ltd. 5 0 2 0 2019-03-08
AS139766 Protocol Technologies Co.,Ltd t/a KNET 2 0 2 0 2019-11-04
AS140617 THAN PHYO THU MINING COMPANY LIMITED 2 0 2 0 2020-04-30
AS141216 GREAT GOLDEN HORSE COMPANY LIMITED 2 0 2 0 2020-09-26
AS9654 Myanmar Internet Exchange - MMIX 3 1 3 2 2017-11-10
AS45558 MYANMA POSTS AND TELECOMMUNICATIONS 3 0 59 6 2008-12-02
AS58952 Frontiir Co. Ltd 32 273 362 178 2013-07-02
AS132037 HO'NGSA' TELECOM COMPANY LIMITED 2 0 1 0 2016-07-21
AS134736 NTT Communications (Thailand) Co., Ltd. (Yangon Branch) 7 0 4 0 2015-10-19
AS134739 AGB Communication Co.Ltd 13 0 9 0 2015-10-20
AS136780 MYANMAR INFORMATION HIGHWAY LIMITED 8 0 3 0 2017-06-26
AS137861 Myanmar World Distribution Telecommunication Company Limited 1 0 1 0 2018-05-22
AS138158 Serge Pun & Associate (Myanmar) Ltd. 1 0 1 0 2018-08-24
AS139071 MK Networks Co., Ltd. 3 0 1 0 2019-05-16
AS139595 HTIN HTIN NETWORK COMPANY LIMITED 1 0 1 0 2019-08-15
AS139711 KANBAWZA BANK LIMITED 3 0 2 0 2019-10-09
AS139719 Yar Chang Company Limited 7 0 5 0 2019-10-10
AS139849 Royal Esprit Company Limited 1 1 3 1 2019-12-04
AS141015 Myanmar Link Telecommunication Ltd 1 0 2 0 2020-08-19
AS141236 Mandalay City Development Committee 2 0 1 0 2020-10-06
AS18399 Yatanarpon Teleport Company Limited 36 0 1 0 2002-11-04
AS132344 SEANET 2 0 1 0 2016-08-17
AS132686 Amara Communications 5 0 2 0 2016-08-31
AS133440 ST-net 1 0 1 0 2017-06-05
AS134976 Myint & Associates Telecommunications Ltd 10 0 2 0 2015-12-14
AS135371 Fortune Broadband 10 2 5 3 2016-04-22
AS135427 Myanmar Network Company Limited 5 0 2 0 2016-05-17
AS136137 Terabit Wave Company Limited 1 0 1 0 2016-12-08
AS136168 Campana MYTHIC Co. Ltd. 4 1 46 19 2017-01-04
AS136205 LINN IT Solution Co., Ltd 1 0 1 0 2020-03-04
AS136442 Ocean Wave Communication Co., Ltd 8 0 4 0 2017-03-16
AS136474 Marga Global Telecom Limited 7 0 1 0 2017-03-31
AS136613 Ayeyarwady Bank 2 0 2 0 2017-05-31
AS136617 Fortune Telecom Company Limited 5 0 2 0 2017-06-01
AS137069 POSCO INTERNATIONAL CORPORATION (MYANMAR E&P OFFICE) 1 0 1 0 2021-03-19
AS138167 TrueNET 4 0 1 0 2018-08-29
AS138933 University of Computer Studies, Yangon 1 0 1 0 2019-03-25
AS139051 AUNG GABAR COMPANY LIMITED 1 0 1 0 2019-05-09
AS139698 MYANMAR MICRO PLUS COMPANY LIMITED 1 0 1 0 2019-10-02
AS139804 RED PALM COMPANY LIMITED 1 0 1 0 2019-11-19
AS140091 SHWE MAHAR MAE KHONG INDUSTRIAL COMPANY LIMITED 2 0 2 0 2020-02-10